Time;durP1;ratioP1;P1;durP2;ratioP2;P2;SDS_P1;SDS_P2;PMS_P1;PMS_P2;Temp;Humidity;BMP_temperature;BMP_pressure;BME280_temperature;BME280_humidity;BME280_pressure;Samples;Min_cycle;Max_cycle;Signal;HPM_P1;HPM_P2
2021/08/09 00:01:15;;;;;;;15.20;7.20;;;;;;;19.46;100.00;99174.75;1631913;86;21000;-71
2021/08/09 00:03:43;;;;;;;10.43;6.42;;;;;;;19.43;100.00;99172.20;1665522;85;21101;-72
2021/08/09 00:06:17;;;;;;;8.43;6.33;;;;;;;19.39;100.00;99171.46;1665525;85;21140;-71
2021/08/09 00:08:48;;;;;;;9.80;6.70;;;;;;;19.34;100.00;99168.08;1663490;85;21687;-72
2021/08/09 00:11:21;;;;;;;12.68;6.10;;;;;;;19.32;100.00;99175.29;1647302;85;21579;-72
2021/08/09 00:13:53;;;;;;;8.95;5.33;;;;;;;19.30;100.00;99165.13;1645933;86;21031;-71
2021/08/09 00:16:24;;;;;;;8.20;5.53;;;;;;;19.31;100.00;99166.86;1651693;86;21050;-72
2021/08/09 00:18:54;;;;;;;7.83;5.03;;;;;;;19.30;100.00;99161.58;1643149;86;20899;-71
2021/08/09 00:21:26;;;;;;;9.10;5.67;;;;;;;19.26;100.00;99150.14;1617246;87;21670;-72
2021/08/09 00:23:56;;;;;;;6.70;4.90;;;;;;;19.25;100.00;99147.52;1671467;84;21509;-72
2021/08/09 00:26:29;;;;;;;8.00;4.80;;;;;;;19.23;100.00;99137.36;1674471;84;21072;-71
2021/08/09 00:29:03;;;;;;;8.00;4.83;;;;;;;19.23;100.00;99140.03;1673896;84;21583;-71
2021/08/09 00:31:32;;;;;;;6.37;4.40;;;;;;;19.24;100.00;99136.42;1688015;84;20983;-70
2021/08/09 00:34:03;;;;;;;6.83;4.70;;;;;;;19.24;100.00;99124.39;1695129;83;20952;-73
2021/08/09 00:36:33;;;;;;;7.50;5.15;;;;;;;19.22;100.00;99124.92;1710856;83;21529;-72
2021/08/09 00:39:02;;;;;;;11.45;5.50;;;;;;;19.19;100.00;99126.79;1695021;83;20994;-71
2021/08/09 00:41:33;;;;;;;9.05;5.25;;;;;;;19.15;100.00;99121.16;1684358;83;21082;-66
2021/08/09 00:44:01;;;;;;;11.28;5.37;;;;;;;19.16;100.00;99118.02;1695430;83;21177;-67
2021/08/09 00:46:31;;;;;;;7.87;5.70;;;;;;;19.17;100.00;99121.10;1692350;83;20934;-70
2021/08/09 00:49:02;;;;;;;12.80;6.28;;;;;;;19.18;100.00;99115.69;1694856;83;21437;-71
2021/08/09 00:51:32;;;;;;;7.03;5.20;;;;;;;19.17;100.00;99117.09;1684487;83;21050;-71
2021/08/09 00:54:04;;;;;;;6.87;5.08;;;;;;;19.14;100.00;99108.73;1695587;83;20921;-71
2021/08/09 00:56:33;;;;;;;6.85;5.80;;;;;;;19.12;100.00;99119.95;1675898;83;21107;-70
2021/08/09 00:59:02;;;;;;;7.12;4.78;;;;;;;19.09;100.00;99120.55;1695576;83;20906;-71
2021/08/09 01:01:32;;;;;;;8.65;5.60;;;;;;;19.07;100.00;99121.95;1665230;83;21434;-70
2021/08/09 01:04:03;;;;;;;8.90;5.87;;;;;;;19.04;100.00;99121.20;1696543;83;20910;-70
2021/08/09 01:06:31;;;;;;;9.35;5.60;;;;;;;18.99;100.00;99117.38;1675524;83;20962;-68
2021/08/09 01:09:35;;;;;;;9.38;6.50;;;;;;;18.96;100.00;99116.64;1695575;83;21134;-72
2021/08/09 01:12:27;;;;;;;9.23;5.65;;;;;;;18.93;100.00;99114.09;1692031;83;21410;-68
2021/08/09 01:15:14;;;;;;;7.83;5.28;;;;;;;18.93;100.00;99112.75;1685413;83;21519;-66
2021/08/09 01:17:46;;;;;;;7.80;5.53;;;;;;;18.94;100.00;99117.17;1671788;84;21438;-67
2021/08/09 01:20:50;;;;;;;9.85;5.75;;;;;;;18.93;100.00;99108.75;1685293;83;20941;-67
2021/08/09 01:24:03;;;;;;;7.42;5.60;;;;;;;18.91;100.00;99108.77;1694994;83;21186;-68
2021/08/09 01:26:44;;;;;;;8.90;5.50;;;;;;;18.88;100.00;99106.23;1710863;82;20895;-68
2021/08/09 01:29:17;;;;;;;4.60;4.10;;;;;;;18.82;100.00;99110.48;1695382;83;21472;-67
2021/08/09 01:31:48;;;;;;;6.53;5.17;;;;;;;18.79;100.00;99103.92;1695389;83;21452;-67
2021/08/09 01:34:19;;;;;;;10.40;6.30;;;;;;;18.77;100.00;99103.98;1693768;83;21026;-67
2021/08/09 01:36:50;;;;;;;10.90;6.30;;;;;;;18.75;100.00;99102.30;1677468;83;21226;-67
2021/08/09 01:39:20;;;;;;;7.08;5.50;;;;;;;18.73;100.00;99109.05;1695412;83;21495;-68
2021/08/09 01:41:51;;;;;;;6.47;5.87;;;;;;;18.68;100.00;99113.70;1695491;83;20906;-67
2021/08/09 01:44:21;;;;;;;7.03;4.90;;;;;;;18.62;100.00;99105.94;1722013;81;21576;-67
2021/08/09 01:46:51;;;;;;;5.40;4.70;;;;;;;18.58;100.00;99104.28;1695676;83;21520;-68
2021/08/09 01:49:22;;;;;;;7.35;5.12;;;;;;;18.59;100.00;99099.81;1712741;82;21090;-66
2021/08/09 01:51:52;;;;;;;7.70;5.97;;;;;;;18.59;100.00;99103.81;1718657;82;21536;-66
2021/08/09 01:54:22;;;;;;;7.97;5.15;;;;;;;18.58;100.00;99106.08;1690018;82;21021;-67
2021/08/09 01:56:51;;;;;;;13.22;5.42;;;;;;;18.57;100.00;99109.22;1718273;82;21472;-67
2021/08/09 01:59:24;;;;;;;7.65;5.00;;;;;;;18.55;100.00;99102.60;1715368;81;20994;-67
2021/08/09 02:01:53;;;;;;;9.75;5.17;;;;;;;18.53;100.00;99112.48;1713557;82;21066;-67
2021/08/09 02:04:22;;;;;;;6.67;4.90;;;;;;;18.51;100.00;99114.34;1716048;82;20917;-66
2021/08/09 02:06:51;;;;;;;7.75;5.45;;;;;;;18.48;100.00;99116.25;1719221;82;21017;-67
2021/08/09 02:09:20;;;;;;;16.15;6.10;;;;;;;18.44;100.00;99118.14;1716459;81;20993;-67
2021/08/09 02:11:57;;;;;;;11.68;6.05;;;;;;;18.43;100.00;99123.08;1718321;81;21456;-68
2021/08/09 02:14:27;;;;;;;8.15;5.53;;;;;;;18.42;100.00;99121.80;1714511;81;21124;-68
2021/08/09 02:17:16;;;;;;;9.20;5.62;;;;;;;18.41;100.00;99129.41;1711307;81;20957;-66
2021/08/09 02:19:57;;;;;;;9.70;5.53;;;;;;;18.40;100.00;99131.20;1705429;81;21424;-67
2021/08/09 02:22:39;;;;;;;8.80;5.83;;;;;;;18.37;100.00;99123.31;1717918;81;21624;-66
2021/08/09 02:25:12;;;;;;;14.53;6.35;;;;;;;18.35;100.00;99129.64;1717927;81;20974;-68
2021/08/09 02:27:56;;;;;;;10.08;6.72;;;;;;;18.32;100.00;99127.09;1702990;82;21205;-67
2021/08/09 02:30:25;;;;;;;9.83;5.92;;;;;;;18.29;100.00;99125.88;1717651;81;21534;-67
2021/08/09 02:32:57;;;;;;;9.25;5.60;;;;;;;18.25;100.00;99132.66;1718310;81;20935;-67
2021/08/09 02:35:27;;;;;;;14.58;7.50;;;;;;;18.24;100.00;99136.27;1714488;82;21500;-68
2021/08/09 02:37:57;;;;;;;9.40;8.08;;;;;;;18.23;100.00;99141.19;1693264;82;20986;-68
2021/08/09 02:40:27;;;;;;;10.53;7.20;;;;;;;18.21;100.00;99141.72;1713786;82;21898;-66
2021/08/09 02:42:57;;;;;;;7.95;6.00;;;;;;;18.19;100.00;99146.23;1712642;82;20847;-68
2021/08/09 02:45:27;;;;;;;11.73;5.90;;;;;;;18.19;100.00;99152.91;1710594;82;21677;-68
2021/08/09 02:47:55;;;;;;;10.43;5.45;;;;;;;18.20;100.00;99147.98;1711359;81;21528;-66
2021/08/09 02:50:24;;;;;;;10.20;6.67;;;;;;;18.21;100.00;99152.86;1695253;83;21069;-68
2021/08/09 02:52:52;;;;;;;7.25;6.10;;;;;;;18.17;100.00;99152.56;1694996;83;21145;-67
2021/08/09 02:55:22;;;;;;;9.28;5.65;;;;;;;18.13;100.00;99154.94;1695225;83;20929;-69
2021/08/09 02:57:51;;;;;;;7.92;5.05;;;;;;;18.11;100.00;99166.14;1722178;81;20978;-68
2021/08/09 03:00:19;;;;;;;9.63;5.08;;;;;;;18.08;100.00;99161.78;1696570;83;21008;-68
2021/08/09 03:02:48;;;;;;;13.22;5.25;;;;;;;18.07;100.00;99168.52;1695068;83;21595;-67
2021/08/09 03:05:17;;;;;;;10.58;5.17;;;;;;;18.06;100.00;99169.44;1692983;83;21140;-69
2021/08/09 03:07:46;;;;;;;30.30;7.12;;;;;;;18.05;100.00;99163.69;1648661;85;21001;-69
2021/08/09 03:10:16;;;;;;;18.85;6.75;;;;;;;18.05;100.00;99170.36;1671817;83;21443;-64
2021/08/09 03:12:46;;;;;;;10.85;4.65;;;;;;;18.02;100.00;99167.34;1688911;83;21445;-62
2021/08/09 03:15:15;;;;;;;7.65;4.50;;;;;;;18.04;100.00;99168.16;1674686;83;21440;-62
2021/08/09 03:17:44;;;;;;;5.95;4.60;;;;;;;18.07;100.00;99173.85;1695728;83;21175;-63
2021/08/09 03:20:14;;;;;;;6.60;4.70;;;;;;;18.10;100.00;99170.61;1695454;83;20978;-62
2021/08/09 03:22:43;;;;;;;6.37;4.83;;;;;;;18.13;100.00;99174.50;1723723;81;21453;-62
2021/08/09 03:25:12;;;;;;;9.68;4.22;;;;;;;18.17;100.00;99170.79;1694187;83;21014;-63
2021/08/09 03:27:41;;;;;;;9.93;4.10;;;;;;;18.21;100.00;99170.22;1696609;83;20926;-61
2021/08/09 03:30:10;;;;;;;10.25;4.67;;;;;;;18.27;100.00;99162.44;1687023;83;21493;-61
2021/08/09 03:32:38;;;;;;;8.08;4.67;;;;;;;18.29;100.00;99170.80;1695062;83;21517;-63
2021/08/09 03:35:08;;;;;;;7.17;4.85;;;;;;;18.29;100.00;99175.27;1695070;83;21030;-63
2021/08/09 03:37:37;;;;;;;10.03;5.05;;;;;;;18.29;100.00;99169.93;1696255;83;20986;-62
2021/08/09 03:40:09;;;;;;;4.62;4.17;;;;;;;18.30;100.00;99174.34;1695819;83;21560;-67
2021/08/09 03:42:37;;;;;;;5.58;4.50;;;;;;;18.32;100.00;99180.50;1677542;83;21159;-63
2021/08/09 03:45:08;;;;;;;9.68;5.72;;;;;;;18.36;100.00;99177.66;1695762;83;21175;-66
2021/08/09 03:47:39;;;;;;;8.38;6.30;;;;;;;18.40;100.00;99166.39;1695542;83;21508;-67
2021/08/09 03:50:10;;;;;;;9.33;5.83;;;;;;;18.40;100.00;99166.39;1695727;81;21535;-67
2021/08/09 03:52:48;;;;;;;6.15;5.37;;;;;;;18.45;100.00;99169.80;1673580;83;21663;-64
2021/08/09 03:55:16;;;;;;;10.05;5.37;;;;;;;18.50;100.00;99175.37;1694407;83;21225;-65
2021/08/09 03:57:45;;;;;;;10.10;5.78;;;;;;;18.55;100.00;99177.86;1692500;83;20966;-67
2021/08/09 04:00:14;;;;;;;9.60;5.87;;;;;;;18.58;100.00;99174.20;1661891;84;21055;-64
2021/08/09 04:02:44;;;;;;;7.42;6.03;;;;;;;18.56;100.00;99166.25;1695743;83;20978;-65
2021/08/09 04:05:16;;;;;;;13.80;6.62;;;;;;;18.59;100.00;99173.27;1695177;83;20986;-64
2021/08/09 04:07:45;;;;;;;8.05;5.95;;;;;;;18.59;100.00;99166.12;1695323;83;21059;-64
2021/08/09 04:10:13;;;;;;;9.30;5.35;;;;;;;18.61;100.00;99164.27;1721395;81;20878;-64
2021/08/09 04:12:44;;;;;;;24.50;6.67;;;;;;;18.68;100.00;99178.30;1695809;84;21440;-65
2021/08/09 04:15:15;;;;;;;9.23;5.87;;;;;;;18.72;100.00;99174.11;1694565;83;21493;-65
2021/08/09 04:17:44;;;;;;;9.70;6.35;;;;;;;18.75;100.00;99171.78;1688760;83;21012;-64
2021/08/09 04:20:14;;;;;;;8.08;6.10;;;;;;;18.78;100.00;99175.21;1695269;83;21110;-65
2021/08/09 04:22:43;;;;;;;12.20;5.75;;;;;;;18.85;100.00;99183.86;1695009;83;20958;-65
2021/08/09 04:25:11;;;;;;;7.58;5.65;;;;;;;18.87;100.00;99174.84;1695304;83;20926;-65
2021/08/09 04:27:40;;;;;;;13.48;6.30;;;;;;;18.88;100.00;99171.70;1695012;83;21112;-65
2021/08/09 04:30:11;;;;;;;7.25;6.55;;;;;;;18.88;100.00;99179.27;1651714;84;21073;-65
2021/08/09 04:32:41;;;;;;;8.95;6.45;;;;;;;18.87;100.00;99189.55;1687813;83;21144;-65
2021/08/09 04:35:11;;;;;;;9.23;6.15;;;;;;;18.85;100.00;99185.19;1695204;83;21043;-65
2021/08/09 04:37:40;;;;;;;8.40;5.78;;;;;;;18.86;100.00;99193.62;1717796;82;21060;-64
2021/08/09 04:40:11;;;;;;;12.23;6.08;;;;;;;18.88;100.00;99189.95;1696316;83;21543;-66
2021/08/09 04:42:39;;;;;;;6.77;6.07;;;;;;;18.91;100.00;99188.96;1694318;83;21002;-65
2021/08/09 04:45:09;;;;;;;8.53;6.80;;;;;;;18.95;100.00;99192.41;1682599;83;21329;-65
2021/08/09 04:47:38;;;;;;;9.13;6.78;;;;;;;18.99;100.00;99192.70;1696133;83;21484;-65
2021/08/09 04:50:07;;;;;;;10.58;6.60;;;;;;;19.04;100.00;99191.59;1694335;81;20926;-65
2021/08/09 04:52:43;;;;;;;16.55;7.00;;;;;;;19.12;100.00;99196.62;1696169;83;21463;-64
2021/08/09 04:55:14;;;;;;;7.95;7.15;;;;;;;19.19;100.00;99198.13;1695199;83;20969;-65
2021/08/09 04:57:42;;;;;;;7.53;6.65;;;;;;;19.26;100.00;99196.94;1695195;83;21092;-65
2021/08/09 05:00:14;;;;;;;7.90;6.33;;;;;;;19.33;100.00;99204.25;1681086;83;20994;-65
2021/08/09 05:02:41;;;;;;;11.60;7.17;;;;;;;19.40;100.00;99203.09;1692586;83;20934;-64
2021/08/09 05:05:12;;;;;;;11.05;6.62;;;;;;;19.49;100.00;99202.25;1696184;83;21476;-65
2021/08/09 05:07:40;;;;;;;12.07;7.62;;;;;;;19.61;100.00;99202.23;1722150;81;20954;-65
2021/08/09 05:10:10;;;;;;;18.98;8.05;;;;;;;19.74;100.00;99207.94;1695689;83;21472;-65
2021/08/09 05:12:39;;;;;;;14.13;8.23;;;;;;;19.85;100.00;99200.78;1695870;83;20937;-64
2021/08/09 05:15:10;;;;;;;12.18;8.25;;;;;;;19.96;100.00;99202.56;1694768;83;21528;-65
2021/08/09 05:17:39;;;;;;;10.18;8.10;;;;;;;20.07;100.00;99206.52;1696039;83;21081;-65
2021/08/09 05:20:08;;;;;;;9.63;8.73;;;;;;;20.18;100.00;99210.52;1695657;83;21037;-66
2021/08/09 05:22:36;;;;;;;14.43;8.98;;;;;;;20.25;100.00;99213.33;1694687;83;21225;-65
2021/08/09 05:25:08;;;;;;;11.63;8.00;;;;;;;20.31;100.00;99212.59;1693979;83;20887;-66
2021/08/09 05:27:33;;;;;;;8.68;7.78;;;;;;;20.39;100.00;99218.53;1689427;83;20951;-65
2021/08/09 05:30:04;;;;;;;9.68;8.75;;;;;;;20.52;100.00;99228.70;1686922;83;20957;-66
2021/08/09 05:32:32;;;;;;;9.28;8.25;;;;;;;20.63;100.00;99233.97;1682128;83;20997;-65
2021/08/09 05:35:00;;;;;;;11.15;9.80;;;;;;;20.74;100.00;99230.33;1672960;83;21082;-66
2021/08/09 05:37:28;;;;;;;9.50;8.55;;;;;;;20.87;100.00;99223.95;1695387;83;20992;-65
2021/08/09 05:39:57;;;;;;;11.85;9.83;;;;;;;21.00;100.00;99225.58;1695803;83;20923;-66
2021/08/09 05:42:26;;;;;;;13.13;9.23;;;;;;;21.13;100.00;99229.42;1698277;83;21089;-65
2021/08/09 05:44:53;;;;;;;11.28;8.65;;;;;;;21.24;100.00;99225.78;1695309;83;20987;-64
2021/08/09 05:47:23;;;;;;;9.88;8.30;;;;;;;21.36;100.00;99223.01;1673855;84;21822;-66
2021/08/09 05:49:53;;;;;;;10.63;8.08;;;;;;;21.51;100.00;99216.02;1696594;81;20921;-66
2021/08/09 05:52:23;;;;;;;9.05;7.62;;;;;;;21.66;100.00;99207.19;1695409;83;21012;-67
2021/08/09 05:54:53;;;;;;;9.67;8.43;;;;;;;21.83;100.00;99199.66;1690476;83;22114;-67
2021/08/09 05:57:22;;;;;;;10.58;9.45;;;;;;;21.97;100.00;99204.71;1675994;85;21080;-66
2021/08/09 05:59:51;;;;;;;10.00;8.70;;;;;;;22.10;100.00;99208.14;1684636;83;21099;-65
2021/08/09 06:02:19;;;;;;;10.18;8.10;;;;;;;22.19;100.00;99210.34;1681692;83;21067;-67
2021/08/09 06:04:47;;;;;;;9.90;8.88;;;;;;;22.29;100.00;99197.72;1674113;84;20903;-66
2021/08/09 06:07:16;;;;;;;16.97;8.68;;;;;;;22.41;100.00;99194.84;1657816;85;21000;-67
2021/08/09 06:09:47;;;;;;;14.90;9.05;;;;;;;22.53;100.00;99198.22;1662134;84;21030;-66
2021/08/09 06:12:16;;;;;;;10.48;8.68;;;;;;;22.67;100.00;99201.97;1678105;84;21935;-66
2021/08/09 06:14:46;;;;;;;9.68;8.78;;;;;;;22.76;100.00;99197.47;1642884;84;20911;-66
2021/08/09 06:17:14;;;;;;;10.40;8.98;;;;;;;22.85;100.00;99194.30;1665948;84;20959;-67
2021/08/09 06:19:42;;;;;;;12.50;9.95;;;;;;;22.92;100.00;99195.70;1668262;84;21018;-65
2021/08/09 06:22:11;;;;;;;12.37;8.73;;;;;;;22.99;100.00;99189.49;1656999;86;21485;-65
2021/08/09 06:24:40;;;;;;;8.95;7.45;;;;;;;23.07;100.00;99179.17;1659425;85;22081;-65
2021/08/09 06:27:09;;;;;;;13.03;7.90;;;;;;;23.17;100.00;99186.63;1661510;85;20962;-66
2021/08/09 06:29:39;;;;;;;7.60;6.90;;;;;;;23.27;100.00;99191.52;1663244;85;21576;-66
2021/08/09 06:32:10;;;;;;;7.83;6.40;;;;;;;23.36;100.00;99190.98;1668110;86;21029;-67
2021/08/09 06:34:40;;;;;;;;;;;;;;;23.47;100.00;99192.58;1670043;84;21004;-64
2021/08/09 06:37:09;;;;;;;9.28;5.92;;;;;;;23.60;100.00;99192.28;1669076;84;21149;-66
2021/08/09 06:39:38;;;;;;;6.05;4.47;;;;;;;23.72;100.00;99194.28;1669192;84;20984;-68
2021/08/09 06:42:08;;;;;;;5.83;4.37;;;;;;;23.84;100.00;99198.94;1647277;84;20956;-69
2021/08/09 06:44:39;;;;;;;10.30;4.58;;;;;;;23.98;100.00;99194.56;1668664;84;20967;-69
2021/08/09 06:47:07;;;;;;;8.88;4.67;;;;;;;24.13;100.00;99203.95;1669470;84;21055;-70
2021/08/09 06:49:37;;;;;;;7.53;4.00;;;;;;;24.27;100.00;99209.89;1647023;83;21189;-70
2021/08/09 06:52:05;;;;;;;6.97;3.75;;;;;;;24.41;100.00;99199.60;1676580;83;20988;-70
2021/08/09 06:54:33;;;;;;;4.35;3.92;;;;;;;24.54;100.00;99201.05;1676575;83;21012;-70
2021/08/09 06:57:06;;;;;;;6.35;4.28;;;;;;;24.68;100.00;99207.83;1675398;83;20992;-71
2021/08/09 06:59:34;;;;;;;3.75;3.45;;;;;;;24.79;100.00;99212.06;1676863;83;20880;-70
2021/08/09 07:02:04;;;;;;;5.90;3.83;;;;;;;24.92;100.00;99201.36;1676576;84;20900;-70
2021/08/09 07:04:32;;;;;;;9.08;3.65;;;;;;;25.06;100.00;99199.53;1675372;84;20986;-71
2021/08/09 07:07:00;;;;;;;7.80;3.72;;;;;;;25.19;100.00;99197.42;1644630;85;20918;-71
2021/08/09 07:09:27;;;;;;;6.25;3.75;;;;;;;25.30;100.00;99197.10;1638427;86;21058;-70
2021/08/09 07:11:55;;;;;;;5.50;3.33;;;;;;;25.43;100.00;99202.08;1644697;87;21096;-69
2021/08/09 07:14:25;;;;;;;4.87;3.20;;;;;;;25.58;100.00;99201.57;1705099;82;21202;-71
2021/08/09 07:16:57;;;;;;;4.17;2.65;;;;;;;25.73;100.00;99192.47;1696559;82;22437;-70
2021/08/09 07:19:25;;;;;;;4.37;2.77;;;;;;;25.86;100.00;99182.18;1668221;84;21022;-70
2021/08/09 07:21:54;;;;;;;4.00;2.85;;;;;;;26.01;100.00;99181.12;1669457;84;20896;-71
2021/08/09 07:24:22;;;;;;;5.83;2.67;;;;;;;26.15;100.00;99181.06;1669767;84;20960;-71
2021/08/09 07:26:50;;;;;;;5.60;2.52;;;;;;;26.26;100.00;99177.13;1676478;83;21758;-71
2021/08/09 07:29:19;;;;;;;3.60;2.80;;;;;;;26.41;100.00;99174.35;1691892;82;21000;-70
2021/08/09 07:31:47;;;;;;;3.98;2.60;;;;;;;26.52;100.00;99173.13;1712893;82;20980;-69
2021/08/09 07:34:16;;;;;;;4.25;2.67;;;;;;;26.65;100.00;99177.56;1677420;83;20934;-70
2021/08/09 07:36:43;;;;;;;5.42;2.50;;;;;;;26.78;100.00;99174.84;1675112;84;20922;-70
2021/08/09 07:39:11;;;;;;;2.40;2.20;;;;;;;26.89;100.00;99165.45;1663605;85;22326;-70
2021/08/09 07:41:40;;;;;;;3.05;2.00;;;;;;;27.04;100.00;99168.08;1664006;85;20950;-70
2021/08/09 07:44:09;;;;;;;2.47;2.10;;;;;;;27.13;100.00;99167.39;1673829;85;20966;-70
2021/08/09 07:46:38;;;;;;;2.52;2.05;;;;;;;27.25;100.00;99178.19;1674490;84;20899;-70
2021/08/09 07:49:06;;;;;;;3.12;2.20;;;;;;;27.37;100.00;99176.89;1678572;83;20906;-73
2021/08/09 07:51:35;;;;;;;2.42;1.80;;;;;;;27.48;100.00;99179.20;1682732;84;21241;-72
2021/08/09 07:54:03;;;;;;;3.35;2.10;;;;;;;27.57;100.00;99183.94;1695013;83;21039;-71
2021/08/09 07:56:32;;;;;;;2.40;2.05;;;;;;;27.67;100.00;99198.17;1691018;83;21019;-72
2021/08/09 07:59:01;;;;;;;4.58;2.40;;;;;;;27.78;100.00;99200.94;1661529;83;21052;-69
2021/08/09 08:01:30;;;;;;;2.35;2.15;;;;;;;27.90;100.00;99207.64;1689114;84;21861;-70
2021/08/09 08:03:58;;;;;;;2.55;2.10;;;;;;;28.04;100.00;99223.37;1691601;84;21514;-70
2021/08/09 08:06:26;;;;;;;4.10;2.20;;;;;;;28.13;100.00;99219.47;1689448;84;20956;-72
2021/08/09 08:08:56;;;;;;;3.83;2.08;;;;;;;28.27;100.00;99222.98;1691298;84;21079;-72
2021/08/09 08:11:24;;;;;;;8.68;2.52;;;;;;;28.35;100.00;99224.12;1691221;83;20976;-73
2021/08/09 08:14:03;;;;;;;2.45;2.10;;;;;;;28.43;100.00;99222.19;1691294;83;21030;-73
2021/08/09 08:16:31;;;;;;;2.67;2.10;;;;;;;28.55;100.00;99230.72;1688265;84;21151;-74
2021/08/09 08:19:03;;;;;;;2.20;2.00;;;;;;;28.64;100.00;99229.13;1666236;84;21612;-74
2021/08/09 08:21:40;;;;;;;7.22;2.20;;;;;;;28.72;100.00;99224.82;1683855;84;20963;-71
2021/08/09 08:24:11;;;;;;;4.05;2.27;;;;;;;28.76;100.00;99226.80;1688381;84;21509;-74
2021/08/09 08:26:39;;;;;;;2.87;2.12;;;;;;;28.78;100.00;99226.19;1691627;84;20930;-71
2021/08/09 08:29:08;;;;;;;4.03;2.33;;;;;;;28.82;100.00;99221.74;1691344;83;21679;-71
2021/08/09 08:31:36;;;;;;;6.12;2.10;;;;;;;28.88;100.00;99226.38;1692919;83;21567;-73
2021/08/09 08:34:05;;;;;;;8.25;2.00;;;;;;;28.90;100.00;99225.27;1694704;84;20997;-73
2021/08/09 08:36:33;;;;;;;7.92;2.30;;;;;;;28.95;100.00;99233.05;1696720;84;20907;-72
2021/08/09 08:39:01;;;;;;;6.22;2.10;;;;;;;28.90;100.00;99229.83;1696766;84;20998;-71
2021/08/09 08:41:31;;;;;;;2.27;2.00;;;;;;;28.91;99.08;99236.50;1697047;84;21955;-70
2021/08/09 08:44:01;;;;;;;4.95;1.77;;;;;;;28.93;98.30;99237.73;1696559;84;20982;-68
2021/08/09 08:46:29;;;;;;;4.58;2.15;;;;;;;28.90;97.26;99234.77;1696776;83;21015;-71
2021/08/09 08:49:01;;;;;;;2.70;1.95;;;;;;;28.93;99.48;99224.16;1696691;84;21417;-71
2021/08/09 08:51:29;;;;;;;1.95;1.75;;;;;;;28.95;99.90;99222.18;1683902;84;21570;-71
2021/08/09 08:53:57;;;;;;;2.17;1.70;;;;;;;29.00;97.47;99219.95;1669443;84;21808;-65
2021/08/09 08:56:26;;;;;;;1.75;1.65;;;;;;;29.06;97.61;99209.95;1670691;84;20932;-70
2021/08/09 08:58:54;;;;;;;3.40;2.00;;;;;;;29.10;98.57;99215.50;1669368;84;20956;-71
2021/08/09 09:01:39;;;;;;;2.02;1.80;;;;;;;29.17;97.29;99215.87;1669368;84;21446;-71
2021/08/09 09:04:28;;;;;;;10.78;2.42;;;;;;;29.25;97.54;99196.59;1664099;84;20985;-72
2021/08/09 09:07:05;;;;;;;6.92;2.27;;;;;;;29.33;98.00;99187.34;1656809;85;21141;-70
2021/08/09 09:09:37;;;;;;;2.83;2.20;;;;;;;29.44;95.78;99185.98;1664245;85;20891;-71
2021/08/09 09:12:17;;;;;;;4.92;2.20;;;;;;;29.55;97.33;99181.52;1677806;82;20986;-73
2021/08/09 09:15:01;;;;;;;6.28;2.40;;;;;;;29.63;97.89;99160.84;1685123;82;20931;-72
2021/08/09 09:17:37;;;;;;;4.08;2.05;;;;;;;29.75;100.00;99163.02;1642426;83;21047;-71
2021/08/09 09:20:28;;;;;;;5.60;2.20;;;;;;;29.86;98.00;99152.12;1676767;82;21951;-71
2021/08/09 09:23:15;;;;;;;6.85;2.10;;;;;;;29.97;98.09;99150.70;1675670;82;21453;-71
2021/08/09 09:25:43;;;;;;;3.17;1.90;;;;;;;30.10;96.78;99151.03;1677159;83;21093;-70
2021/08/09 09:28:34;;;;;;;11.08;2.70;;;;;;;30.17;93.09;99139.48;1667270;84;21013;-70
2021/08/09 09:31:13;;;;;;;3.30;1.95;;;;;;;30.25;90.73;99137.45;1642268;86;21077;-71
2021/08/09 09:33:37;;;;;;;2.00;1.80;;;;;;;30.32;90.99;99139.55;1655976;85;21793;-69
2021/08/09 09:36:06;;;;;;;3.35;2.10;;;;;;;30.38;88.86;99132.20;1607558;88;21514;-71
2021/08/09 09:38:43;;;;;;;1.87;1.72;;;;;;;30.46;87.50;99126.58;1639615;86;20891;-71
2021/08/09 09:41:11;;;;;;;2.72;1.70;;;;;;;30.53;90.31;99119.09;1636901;86;21012;-70
2021/08/09 09:43:42;;;;;;;4.87;2.08;;;;;;;30.61;88.45;99138.36;1656377;85;21517;-72
2021/08/09 09:46:25;;;;;;;2.60;1.55;;;;;;;30.68;90.83;99130.00;1654081;85;21974;-72
2021/08/09 09:49:01;;;;;;;3.20;1.70;;;;;;;30.75;86.06;99127.62;1654270;84;20991;-71
2021/08/09 09:51:25;;;;;;;5.37;1.67;;;;;;;30.83;82.52;99129.16;1621619;86;21486;-71
2021/08/09 09:53:54;;;;;;;3.25;1.72;;;;;;;30.91;79.54;99131.19;1670508;85;20966;-69
2021/08/09 09:56:23;;;;;;;9.43;2.12;;;;;;;30.96;77.38;99135.22;1613237;87;21057;-70
2021/08/09 09:58:51;;;;;;;3.77;1.80;;;;;;;31.01;78.63;99130.22;1614424;87;21141;-71
2021/08/09 10:01:21;;;;;;;2.85;1.62;;;;;;;31.08;76.83;99133.75;1613649;87;21463;-69
2021/08/09 10:03:50;;;;;;;4.05;2.10;;;;;;;31.16;78.70;99135.30;1669495;84;21014;-70
2021/08/09 10:06:18;;;;;;;3.55;1.80;;;;;;;31.26;80.22;99136.22;1644324;86;20915;-70
2021/08/09 10:08:48;;;;;;;4.65;2.20;;;;;;;31.34;80.36;99137.73;1641743;85;21474;-69
2021/08/09 10:11:16;;;;;;;6.17;1.98;;;;;;;31.41;78.57;99133.44;1641858;86;21549;-70
2021/08/09 10:13:43;;;;;;;1.90;1.80;;;;;;;31.50;79.67;99134.45;1680864;83;21088;-70
2021/08/09 10:16:11;;;;;;;6.28;1.90;;;;;;;31.59;78.48;99134.95;1677927;83;21001;-70
2021/08/09 10:18:50;;;;;;;5.10;1.90;;;;;;;31.63;76.74;99129.58;1673273;84;20990;-70
2021/08/09 10:21:18;;;;;;;2.30;1.80;;;;;;;31.67;73.00;99130.15;1670182;84;21572;-70
2021/08/09 10:23:48;;;;;;;11.97;2.52;;;;;;;31.70;71.62;99131.27;1669815;84;20993;-70
2021/08/09 10:26:32;;;;;;;4.20;1.60;;;;;;;31.70;69.89;99132.16;1612646;87;21014;-70
2021/08/09 10:29:06;;;;;;;2.62;1.85;;;;;;;31.72;70.62;99132.02;1672273;85;21049;-72
2021/08/09 10:31:41;;;;;;;3.37;1.40;;;;;;;31.76;69.83;99126.13;1678802;84;20933;-73
2021/08/09 10:34:32;;;;;;;12.30;2.40;;;;;;;31.77;72.85;99127.84;1667744;85;20962;-73
2021/08/09 10:37:08;;;;;;;2.98;1.70;;;;;;;31.82;72.06;99124.18;1674507;84;21470;-70
2021/08/09 10:40:01;;;;;;;5.45;1.92;;;;;;;31.87;71.63;99119.15;1674085;84;20902;-69
2021/08/09 10:42:42;;;;;;;1.92;1.70;;;;;;;31.89;72.23;99129.41;1669542;85;20986;-71
2021/08/09 10:45:14;;;;;;;71.33;4.97;;;;;;;31.94;71.09;99123.02;1669576;84;20986;-70
2021/08/09 10:47:56;;;;;;;3.42;1.80;;;;;;;32.01;71.60;99119.70;1672942;84;21029;-72
2021/08/09 10:50:41;;;;;;;3.77;1.90;;;;;;;32.06;69.99;99129.17;1672386;84;21161;-71
2021/08/09 10:53:32;;;;;;;2.42;1.85;;;;;;;32.15;72.93;99125.56;1690401;84;20995;-72
2021/08/09 10:55:59;;;;;;;60.15;4.35;;;;;;;32.24;74.64;99122.49;1691457;83;20986;-71
2021/08/09 10:58:44;;;;;;;9.65;2.05;;;;;;;32.33;70.62;99125.73;1692178;83;20947;-70
2021/08/09 11:01:13;;;;;;;5.78;1.80;;;;;;;32.29;67.59;99119.35;1646438;86;21038;-72
2021/08/09 11:04:07;;;;;;;4.50;1.95;;;;;;;32.24;68.26;99118.39;1691730;84;21783;-75
2021/08/09 11:06:52;;;;;;;3.25;1.60;;;;;;;32.28;70.47;99115.76;1689391;84;20920;-77
2021/08/09 11:09:37;;;;;;;4.08;1.87;;;;;;;32.35;72.64;99109.20;1689878;84;21533;-77
2021/08/09 11:12:25;;;;;;;3.10;2.15;;;;;;;32.40;74.01;99111.84;1692104;83;21484;-77
2021/08/09 11:15:07;;;;;;;1.90;1.70;;;;;;;32.45;74.12;99114.98;1691551;84;20918;-77
2021/08/09 11:17:40;;;;;;;;;;;;;;;32.52;71.82;99116.11;1694228;83;21443;-75
2021/08/09 11:20:26;;;;;;;5.53;1.70;;;;;;;32.55;68.94;99107.62;1689495;84;20132;-72
2021/08/09 11:23:08;;;;;;;5.67;1.75;;;;;;;32.61;71.57;99108.03;1689882;84;20974;-72
2021/08/09 11:25:43;;;;;;;24.07;2.37;;;;;;;32.63;70.71;99108.23;1689855;84;21002;-71
2021/08/09 11:28:21;;;;;;;3.22;1.60;;;;;;;32.68;70.83;99105.94;1688191;84;20938;-67
2021/08/09 11:30:56;;;;;;;3.20;1.60;;;;;;;32.72;71.07;99094.20;1687274;84;21973;-67
2021/08/09 11:33:36;;;;;;;3.75;1.80;;;;;;;32.75;70.45;99087.08;1690395;84;20972;-68
2021/08/09 11:36:12;;;;;;;6.70;1.90;;;;;;;32.79;72.55;99097.58;1689130;84;21616;-67
2021/08/09 11:38:50;;;;;;;6.95;2.20;;;;;;;32.82;70.94;99089.08;1691743;83;21078;-72
2021/08/09 11:41:28;;;;;;;11.85;2.42;;;;;;;32.86;71.25;99085.03;1690462;84;21498;-72
2021/08/09 11:44:10;;;;;;;5.22;1.80;;;;;;;32.92;73.91;99084.92;1688573;84;21780;-73
2021/08/09 11:46:49;;;;;;;8.98;2.30;;;;;;;32.95;73.68;99090.59;1691989;84;21533;-71
2021/08/09 11:49:17;;;;;;;30.17;3.08;;;;;;;32.97;73.98;99081.73;1690078;83;20942;-72